sensor_id;sensor_type;location;lat;lon;timestamp;temperature;humidity
4207;DHT22;2117;47.972;7.830;2022-12-24T02:32:25;12.30;99.90
4207;DHT22;2117;47.972;7.830;2022-12-24T02:37:53;12.30;99.90
4207;DHT22;2117;47.972;7.830;2022-12-24T02:40:25;12.30;99.90
4207;DHT22;2117;47.972;7.830;2022-12-24T02:42:58;12.30;99.90
4207;DHT22;2117;47.972;7.830;2022-12-24T02:45:31;12.30;99.90
4207;DHT22;2117;47.972;7.830;2022-12-24T02:47:57;12.20;99.90
4207;DHT22;2117;47.972;7.830;2022-12-24T02:50:24;12.20;99.90
4207;DHT22;2117;47.972;7.830;2022-12-24T02:52:49;12.20;99.90
4207;DHT22;2117;47.972;7.830;2022-12-24T02:55:28;12.20;99.90
4207;DHT22;2117;47.972;7.830;2022-12-24T02:58:37;12.20;99.90
4207;DHT22;2117;47.972;7.830;2022-12-24T03:06:45;12.10;99.90
4207;DHT22;2117;47.972;7.830;2022-12-24T03:09:32;12.00;99.90
4207;DHT22;2117;47.972;7.830;2022-12-24T03:12:17;12.10;99.90
4207;DHT22;2117;47.972;7.830;2022-12-24T03:14:46;12.00;99.90
4207;DHT22;2117;47.972;7.830;2022-12-24T03:17:13;12.00;99.90
4207;DHT22;2117;47.972;7.830;2022-12-24T03:19:39;12.00;99.90
4207;DHT22;2117;47.972;7.830;2022-12-24T03:22:09;12.00;99.90
4207;DHT22;2117;47.972;7.830;2022-12-24T03:24:35;12.00;99.90
4207;DHT22;2117;47.972;7.830;2022-12-24T03:27:01;12.00;99.90
4207;DHT22;2117;47.972;7.830;2022-12-24T03:29:27;11.90;99.90
4207;DHT22;2117;47.972;7.830;2022-12-24T03:32:00;11.90;99.90
4207;DHT22;2117;47.972;7.830;2022-12-24T03:34:26;11.90;99.90
4207;DHT22;2117;47.972;7.830;2022-12-24T03:36:51;11.80;99.90
4207;DHT22;2117;47.972;7.830;2022-12-24T03:39:17;11.90;99.90
4207;DHT22;2117;47.972;7.830;2022-12-24T03:41:43;11.90;99.90
4207;DHT22;2117;47.972;7.830;2022-12-24T03:44:08;11.90;99.90
4207;DHT22;2117;47.972;7.830;2022-12-24T03:46:34;11.90;99.90
4207;DHT22;2117;47.972;7.830;2022-12-24T03:48:59;11.90;99.90
4207;DHT22;2117;47.972;7.830;2022-12-24T03:51:26;11.80;99.90
4207;DHT22;2117;47.972;7.830;2022-12-24T03:53:53;11.80;99.90
4207;DHT22;2117;47.972;7.830;2022-12-24T03:56:18;11.80;99.90
4207;DHT22;2117;47.972;7.830;2022-12-24T03:58:45;11.80;99.90
4207;DHT22;2117;47.972;7.830;2022-12-24T04:01:10;11.80;99.90
4207;DHT22;2117;47.972;7.830;2022-12-24T04:03:36;11.80;99.90
4207;DHT22;2117;47.972;7.830;2022-12-24T04:06:03;11.80;99.90
4207;DHT22;2117;47.972;7.830;2022-12-24T04:08:29;11.80;99.90
4207;DHT22;2117;47.972;7.830;2022-12-24T04:10:54;11.80;99.90
4207;DHT22;2117;47.972;7.830;2022-12-24T04:13:20;11.80;99.90
4207;DHT22;2117;47.972;7.830;2022-12-24T04:15:45;11.80;99.90
4207;DHT22;2117;47.972;7.830;2022-12-24T04:18:20;11.80;99.90
4207;DHT22;2117;47.972;7.830;2022-12-24T04:20:45;11.80;99.90
4207;DHT22;2117;47.972;7.830;2022-12-24T04:23:11;11.80;99.90
4207;DHT22;2117;47.972;7.830;2022-12-24T04:25:37;11.80;99.90
4207;DHT22;2117;47.972;7.830;2022-12-24T04:28:02;11.80;99.90
4207;DHT22;2117;47.972;7.830;2022-12-24T04:30:28;11.80;99.90
4207;DHT22;2117;47.972;7.830;2022-12-24T04:32:53;11.80;99.90
4207;DHT22;2117;47.972;7.830;2022-12-24T04:35:19;11.80;99.90
4207;DHT22;2117;47.972;7.830;2022-12-24T04:37:44;11.80;99.90
4207;DHT22;2117;47.972;7.830;2022-12-24T04:40:10;11.80;99.90
4207;DHT22;2117;47.972;7.830;2022-12-24T04:42:36;11.80;99.90
4207;DHT22;2117;47.972;7.830;2022-12-24T04:45:01;11.80;99.90
4207;DHT22;2117;47.972;7.830;2022-12-24T04:47:27;11.80;99.90
4207;DHT22;2117;47.972;7.830;2022-12-24T04:49:52;11.80;99.90
4207;DHT22;2117;47.972;7.830;2022-12-24T04:52:18;11.80;99.90
4207;DHT22;2117;47.972;7.830;2022-12-24T04:54:43;11.70;99.90
4207;DHT22;2117;47.972;7.830;2022-12-24T04:57:09;11.70;99.90
4207;DHT22;2117;47.972;7.830;2022-12-24T04:59:34;11.70;99.90
4207;DHT22;2117;47.972;7.830;2022-12-24T05:02:00;11.70;99.90
4207;DHT22;2117;47.972;7.830;2022-12-24T05:04:25;11.70;99.90
4207;DHT22;2117;47.972;7.830;2022-12-24T05:06:51;11.70;99.90
4207;DHT22;2117;47.972;7.830;2022-12-24T05:09:16;11.70;99.90
4207;DHT22;2117;47.972;7.830;2022-12-24T05:11:42;11.70;99.90
4207;DHT22;2117;47.972;7.830;2022-12-24T05:14:07;11.70;99.90
4207;DHT22;2117;47.972;7.830;2022-12-24T05:16:33;11.70;99.90
4207;DHT22;2117;47.972;7.830;2022-12-24T05:18:59;11.70;99.90
4207;DHT22;2117;47.972;7.830;2022-12-24T05:21:24;11.70;99.90
4207;DHT22;2117;47.972;7.830;2022-12-24T05:23:51;11.70;99.90
4207;DHT22;2117;47.972;7.830;2022-12-24T05:26:57;11.70;99.90
4207;DHT22;2117;47.972;7.830;2022-12-24T05:29:23;11.60;99.90
4207;DHT22;2117;47.972;7.830;2022-12-24T05:31:49;11.70;99.90
4207;DHT22;2117;47.972;7.830;2022-12-24T05:34:15;11.70;99.90
4207;DHT22;2117;47.972;7.830;2022-12-24T05:36:41;11.70;99.90
4207;DHT22;2117;47.972;7.830;2022-12-24T05:39:12;11.70;99.90
4207;DHT22;2117;47.972;7.830;2022-12-24T05:41:38;11.70;99.90
4207;DHT22;2117;47.972;7.830;2022-12-24T05:44:04;11.70;99.90
4207;DHT22;2117;47.972;7.830;2022-12-24T05:46:29;11.60;99.90
4207;DHT22;2117;47.972;7.830;2022-12-24T05:48:55;11.70;99.90
4207;DHT22;2117;47.972;7.830;2022-12-24T05:51:21;11.60;99.90
4207;DHT22;2117;47.972;7.830;2022-12-24T05:53:47;11.60;99.90
4207;DHT22;2117;47.972;7.830;2022-12-24T05:56:15;11.60;99.90
4207;DHT22;2117;47.972;7.830;2022-12-24T05:58:42;11.60;99.90
4207;DHT22;2117;47.972;7.830;2022-12-24T06:01:08;11.60;99.90
4207;DHT22;2117;47.972;7.830;2022-12-24T06:03:35;11.60;99.90
4207;DHT22;2117;47.972;7.830;2022-12-24T06:06:12;11.60;99.90
4207;DHT22;2117;47.972;7.830;2022-12-24T06:08:39;11.60;99.90
4207;DHT22;2117;47.972;7.830;2022-12-24T06:11:08;11.60;99.90
4207;DHT22;2117;47.972;7.830;2022-12-24T06:13:34;11.60;99.90
4207;DHT22;2117;47.972;7.830;2022-12-24T06:16:01;11.60;99.90
4207;DHT22;2117;47.972;7.830;2022-12-24T06:18:28;11.60;99.90
4207;DHT22;2117;47.972;7.830;2022-12-24T06:20:55;11.60;99.90
4207;DHT22;2117;47.972;7.830;2022-12-24T06:23:21;11.60;99.90
4207;DHT22;2117;47.972;7.830;2022-12-24T06:25:49;11.60;99.90
4207;DHT22;2117;47.972;7.830;2022-12-24T06:28:15;11.60;99.90
4207;DHT22;2117;47.972;7.830;2022-12-24T06:30:45;11.60;99.90
4207;DHT22;2117;47.972;7.830;2022-12-24T06:33:11;11.60;99.90
4207;DHT22;2117;47.972;7.830;2022-12-24T06:35:37;11.60;99.90
4207;DHT22;2117;47.972;7.830;2022-12-24T06:38:02;11.60;99.90
4207;DHT22;2117;47.972;7.830;2022-12-24T06:40:28;11.60;99.90
4207;DHT22;2117;47.972;7.830;2022-12-24T06:42:53;11.60;99.90
4207;DHT22;2117;47.972;7.830;2022-12-24T06:45:19;11.60;99.90
4207;DHT22;2117;47.972;7.830;2022-12-24T06:47:44;11.60;99.90
4207;DHT22;2117;47.972;7.830;2022-12-24T06:50:10;11.50;99.90
4207;DHT22;2117;47.972;7.830;2022-12-24T06:52:36;11.50;99.90
4207;DHT22;2117;47.972;7.830;2022-12-24T06:55:03;11.50;99.90
4207;DHT22;2117;47.972;7.830;2022-12-24T06:57:28;11.50;99.90
4207;DHT22;2117;47.972;7.830;2022-12-24T06:59:56;11.50;99.90
4207;DHT22;2117;47.972;7.830;2022-12-24T07:02:22;11.50;99.90
4207;DHT22;2117;47.972;7.830;2022-12-24T07:04:48;11.50;99.90
4207;DHT22;2117;47.972;7.830;2022-12-24T07:07:14;11.50;99.90
4207;DHT22;2117;47.972;7.830;2022-12-24T07:09:39;11.50;99.90
4207;DHT22;2117;47.972;7.830;2022-12-24T07:12:05;11.50;99.90
4207;DHT22;2117;47.972;7.830;2022-12-24T07:14:31;11.50;99.90
4207;DHT22;2117;47.972;7.830;2022-12-24T07:16:56;11.50;99.90
4207;DHT22;2117;47.972;7.830;2022-12-24T07:19:22;11.50;99.90
4207;DHT22;2117;47.972;7.830;2022-12-24T07:21:48;11.60;99.90
4207;DHT22;2117;47.972;7.830;2022-12-24T07:24:14;11.60;99.90
4207;DHT22;2117;47.972;7.830;2022-12-24T07:26:40;11.60;99.90
4207;DHT22;2117;47.972;7.830;2022-12-24T07:29:05;11.50;99.90
4207;DHT22;2117;47.972;7.830;2022-12-24T07:31:31;11.50;99.90
4207;DHT22;2117;47.972;7.830;2022-12-24T07:33:57;11.50;99.90
4207;DHT22;2117;47.972;7.830;2022-12-24T07:36:22;11.60;99.90
4207;DHT22;2117;47.972;7.830;2022-12-24T07:38:48;11.60;99.90
4207;DHT22;2117;47.972;7.830;2022-12-24T07:41:15;11.50;99.90
4207;DHT22;2117;47.972;7.830;2022-12-24T07:43:40;11.50;99.90
4207;DHT22;2117;47.972;7.830;2022-12-24T07:46:06;11.50;99.90
4207;DHT22;2117;47.972;7.830;2022-12-24T07:48:32;11.50;99.90
4207;DHT22;2117;47.972;7.830;2022-12-24T07:50:58;11.60;99.90
4207;DHT22;2117;47.972;7.830;2022-12-24T07:53:25;11.50;99.90
4207;DHT22;2117;47.972;7.830;2022-12-24T07:55:51;11.50;99.90
4207;DHT22;2117;47.972;7.830;2022-12-24T07:58:17;11.60;99.90
4207;DHT22;2117;47.972;7.830;2022-12-24T08:00:43;11.60;99.90
4207;DHT22;2117;47.972;7.830;2022-12-24T08:03:19;11.60;99.90
4207;DHT22;2117;47.972;7.830;2022-12-24T08:05:45;11.60;99.90
4207;DHT22;2117;47.972;7.830;2022-12-24T08:08:11;11.70;99.90
4207;DHT22;2117;47.972;7.830;2022-12-24T08:10:40;11.70;99.90
4207;DHT22;2117;47.972;7.830;2022-12-24T08:13:06;11.60;99.90
4207;DHT22;2117;47.972;7.830;2022-12-24T08:15:32;11.60;99.90
4207;DHT22;2117;47.972;7.830;2022-12-24T08:17:58;11.70;99.90
4207;DHT22;2117;47.972;7.830;2022-12-24T08:20:23;11.70;99.90
4207;DHT22;2117;47.972;7.830;2022-12-24T08:22:49;11.70;99.90
4207;DHT22;2117;47.972;7.830;2022-12-24T08:25:15;11.70;99.90
4207;DHT22;2117;47.972;7.830;2022-12-24T08:27:40;11.70;99.90
4207;DHT22;2117;47.972;7.830;2022-12-24T08:30:06;11.80;99.90
4207;DHT22;2117;47.972;7.830;2022-12-24T08:32:32;11.80;99.90
4207;DHT22;2117;47.972;7.830;2022-12-24T08:34:58;11.80;99.90
4207;DHT22;2117;47.972;7.830;2022-12-24T08:37:24;11.80;99.90
4207;DHT22;2117;47.972;7.830;2022-12-24T08:39:49;11.90;99.90
4207;DHT22;2117;47.972;7.830;2022-12-24T08:42:15;11.90;99.90
4207;DHT22;2117;47.972;7.830;2022-12-24T08:44:40;11.90;99.90
4207;DHT22;2117;47.972;7.830;2022-12-24T08:47:06;11.90;99.90
4207;DHT22;2117;47.972;7.830;2022-12-24T08:49:31;11.90;99.90
4207;DHT22;2117;47.972;7.830;2022-12-24T08:51:57;11.90;99.90
4207;DHT22;2117;47.972;7.830;2022-12-24T08:54:23;12.00;99.90
4207;DHT22;2117;47.972;7.830;2022-12-24T08:56:49;12.00;99.90
4207;DHT22;2117;47.972;7.830;2022-12-24T08:59:15;11.90;99.90
4207;DHT22;2117;47.972;7.830;2022-12-24T09:01:41;11.90;99.90
4207;DHT22;2117;47.972;7.830;2022-12-24T09:04:07;11.90;99.90
4207;DHT22;2117;47.972;7.830;2022-12-24T09:06:34;11.90;99.90
4207;DHT22;2117;47.972;7.830;2022-12-24T09:09:00;12.00;99.90
4207;DHT22;2117;47.972;7.830;2022-12-24T09:11:25;12.00;99.90
4207;DHT22;2117;47.972;7.830;2022-12-24T09:13:51;12.00;99.90
4207;DHT22;2117;47.972;7.830;2022-12-24T09:16:17;12.10;99.90
4207;DHT22;2117;47.972;7.830;2022-12-24T09:18:42;12.10;99.90
4207;DHT22;2117;47.972;7.830;2022-12-24T09:21:14;12.10;99.90
4207;DHT22;2117;47.972;7.830;2022-12-24T09:23:42;12.20;99.90
4207;DHT22;2117;47.972;7.830;2022-12-24T09:26:34;12.20;99.90
4207;DHT22;2117;47.972;7.830;2022-12-24T09:29:01;12.30;99.90
4207;DHT22;2117;47.972;7.830;2022-12-24T09:31:27;12.30;99.90
4207;DHT22;2117;47.972;7.830;2022-12-24T09:33:53;12.30;99.90
4207;DHT22;2117;47.972;7.830;2022-12-24T09:36:20;12.30;99.90
4207;DHT22;2117;47.972;7.830;2022-12-24T09:38:46;12.40;99.90
4207;DHT22;2117;47.972;7.830;2022-12-24T09:44:37;12.30;99.90
4207;DHT22;2117;47.972;7.830;2022-12-24T09:47:24;12.30;99.90
4207;DHT22;2117;47.972;7.830;2022-12-24T09:49:52;12.30;99.90
4207;DHT22;2117;47.972;7.830;2022-12-24T09:52:29;12.30;99.90
4207;DHT22;2117;47.972;7.830;2022-12-24T09:55:24;12.30;99.90
4207;DHT22;2117;47.972;7.830;2022-12-24T09:57:52;12.30;99.90
4207;DHT22;2117;47.972;7.830;2022-12-24T10:00:29;12.30;99.90
4207;DHT22;2117;47.972;7.830;2022-12-24T10:02:55;12.30;99.90
4207;DHT22;2117;47.972;7.830;2022-12-24T10:05:50;12.40;99.90
4207;DHT22;2117;47.972;7.830;2022-12-24T10:19:49;12.40;99.90
4207;DHT22;2117;47.972;7.830;2022-12-24T10:22:45;12.50;99.90
4207;DHT22;2117;47.972;7.830;2022-12-24T10:25:23;12.50;99.90
4207;DHT22;2117;47.972;7.830;2022-12-24T10:27:53;12.60;99.90
4207;DHT22;2117;47.972;7.830;2022-12-24T10:30:21;12.70;99.90
4207;DHT22;2117;47.972;7.830;2022-12-24T10:32:50;12.70;99.90
4207;DHT22;2117;47.972;7.830;2022-12-24T10:37:43;12.80;99.90
4207;DHT22;2117;47.972;7.830;2022-12-24T10:40:42;12.80;99.90
4207;DHT22;2117;47.972;7.830;2022-12-24T10:43:13;12.80;99.90
4207;DHT22;2117;47.972;7.830;2022-12-24T10:45:41;12.80;99.90
4207;DHT22;2117;47.972;7.830;2022-12-24T10:48:13;12.70;99.90
4207;DHT22;2117;47.972;7.830;2022-12-24T10:51:14;12.70;99.90
4207;DHT22;2117;47.972;7.830;2022-12-24T10:53:54;12.70;99.90
4207;DHT22;2117;47.972;7.830;2022-12-24T10:56:21;12.70;99.90
4207;DHT22;2117;47.972;7.830;2022-12-24T10:58:55;12.70;99.90
4207;DHT22;2117;47.972;7.830;2022-12-24T11:01:42;12.80;99.90
4207;DHT22;2117;47.972;7.830;2022-12-24T11:04:18;12.70;99.90
4207;DHT22;2117;47.972;7.830;2022-12-24T11:09:38;12.80;99.90
4207;DHT22;2117;47.972;7.830;2022-12-24T11:12:16;12.80;99.90
4207;DHT22;2117;47.972;7.830;2022-12-24T11:14:43;12.80;99.90
4207;DHT22;2117;47.972;7.830;2022-12-24T11:17:20;12.90;99.90
4207;DHT22;2117;47.972;7.830;2022-12-24T11:19:47;12.90;99.90
4207;DHT22;2117;47.972;7.830;2022-12-24T11:22:22;12.90;99.90
4207;DHT22;2117;47.972;7.830;2022-12-24T11:25:03;12.90;99.90
4207;DHT22;2117;47.972;7.830;2022-12-24T11:30:31;12.90;99.90
4207;DHT22;2117;47.972;7.830;2022-12-24T11:35:25;12.90;99.90
4207;DHT22;2117;47.972;7.830;2022-12-24T11:38:11;13.00;99.90
4207;DHT22;2117;47.972;7.830;2022-12-24T11:40:45;13.10;99.90
4207;DHT22;2117;47.972;7.830;2022-12-24T11:43:15;13.10;99.90
4207;DHT22;2117;47.972;7.830;2022-12-24T11:45:55;13.10;99.90
4207;DHT22;2117;47.972;7.830;2022-12-24T11:48:33;13.10;99.90
4207;DHT22;2117;47.972;7.830;2022-12-24T11:51:05;13.10;99.90
4207;DHT22;2117;47.972;7.830;2022-12-24T11:53:41;13.20;99.90
4207;DHT22;2117;47.972;7.830;2022-12-24T11:56:16;13.10;99.90
4207;DHT22;2117;47.972;7.830;2022-12-24T11:58:52;13.10;99.90
4207;DHT22;2117;47.972;7.830;2022-12-24T12:01:34;13.00;99.90
4207;DHT22;2117;47.972;7.830;2022-12-24T12:04:24;13.10;99.90
4207;DHT22;2117;47.972;7.830;2022-12-24T12:07:03;13.10;99.90
4207;DHT22;2117;47.972;7.830;2022-12-24T12:09:31;13.10;99.90
4207;DHT22;2117;47.972;7.830;2022-12-24T12:12:04;13.00;99.90
4207;DHT22;2117;47.972;7.830;2022-12-24T12:14:38;13.00;99.90
4207;DHT22;2117;47.972;7.830;2022-12-24T12:17:12;13.00;99.90
4207;DHT22;2117;47.972;7.830;2022-12-24T12:19:55;13.00;99.90
4207;DHT22;2117;47.972;7.830;2022-12-24T12:22:41;12.90;99.90
4207;DHT22;2117;47.972;7.830;2022-12-24T12:25:28;12.90;99.90
4207;DHT22;2117;47.972;7.830;2022-12-24T12:27:57;13.00;99.90
4207;DHT22;2117;47.972;7.830;2022-12-24T12:30:25;13.00;99.90
4207;DHT22;2117;47.972;7.830;2022-12-24T12:33:30;13.10;99.90
4207;DHT22;2117;47.972;7.830;2022-12-24T12:35:59;13.10;99.90
4207;DHT22;2117;47.972;7.830;2022-12-24T12:38:27;13.20;99.90
4207;DHT22;2117;47.972;7.830;2022-12-24T12:52:24;13.20;99.90
4207;DHT22;2117;47.972;7.830;2022-12-24T12:57:34;13.20;99.90
4207;DHT22;2117;47.972;7.830;2022-12-24T13:00:07;13.20;99.90
4207;DHT22;2117;47.972;7.830;2022-12-24T13:05:39;13.20;99.90
4207;DHT22;2117;47.972;7.830;2022-12-24T13:08:32;13.10;99.90
4207;DHT22;2117;47.972;7.830;2022-12-24T13:11:19;13.10;99.90
4207;DHT22;2117;47.972;7.830;2022-12-24T13:21:52;13.10;99.90
4207;DHT22;2117;47.972;7.830;2022-12-24T13:24:26;13.00;99.90
4207;DHT22;2117;47.972;7.830;2022-12-24T13:29:51;12.90;99.90
4207;DHT22;2117;47.972;7.830;2022-12-24T13:48:01;12.70;99.90
4207;DHT22;2117;47.972;7.830;2022-12-24T13:50:52;12.70;99.90
4207;DHT22;2117;47.972;7.830;2022-12-24T13:55:56;12.70;99.90
4207;DHT22;2117;47.972;7.830;2022-12-24T13:58:24;12.70;99.90
4207;DHT22;2117;47.972;7.830;2022-12-24T14:00:59;12.70;99.90
4207;DHT22;2117;47.972;7.830;2022-12-24T14:03:45;12.70;99.90
4207;DHT22;2117;47.972;7.830;2022-12-24T14:06:29;12.70;99.90
4207;DHT22;2117;47.972;7.830;2022-12-24T14:09:13;12.70;99.90
4207;DHT22;2117;47.972;7.830;2022-12-24T14:14:33;12.70;99.90
4207;DHT22;2117;47.972;7.830;2022-12-24T14:17:00;12.70;99.90
4207;DHT22;2117;47.972;7.830;2022-12-24T14:19:48;12.70;99.90
4207;DHT22;2117;47.972;7.830;2022-12-24T14:22:35;12.60;99.90
4207;DHT22;2117;47.972;7.830;2022-12-24T14:25:16;12.60;99.90
4207;DHT22;2117;47.972;7.830;2022-12-24T14:27:50;12.60;99.90
4207;DHT22;2117;47.972;7.830;2022-12-24T14:32:49;12.60;99.90
4207;DHT22;2117;47.972;7.830;2022-12-24T14:35:19;12.60;99.90
4207;DHT22;2117;47.972;7.830;2022-12-24T14:37:50;12.60;99.90
4207;DHT22;2117;47.972;7.830;2022-12-24T14:40:20;12.60;99.90
4207;DHT22;2117;47.972;7.830;2022-12-24T14:42:53;12.60;99.90
4207;DHT22;2117;47.972;7.830;2022-12-24T14:45:30;12.60;99.90
4207;DHT22;2117;47.972;7.830;2022-12-24T14:54:22;12.40;99.90
4207;DHT22;2117;47.972;7.830;2022-12-24T15:00:03;12.40;99.90
4207;DHT22;2117;47.972;7.830;2022-12-24T15:02:42;12.30;99.90
4207;DHT22;2117;47.972;7.830;2022-12-24T15:05:11;12.40;99.90
4207;DHT22;2117;47.972;7.830;2022-12-24T15:07:55;12.30;99.90
4207;DHT22;2117;47.972;7.830;2022-12-24T15:10:30;12.30;99.90
4207;DHT22;2117;47.972;7.830;2022-12-24T15:13:01;12.30;99.90
4207;DHT22;2117;47.972;7.830;2022-12-24T15:15:28;12.30;99.90
4207;DHT22;2117;47.972;7.830;2022-12-24T15:17:56;12.30;99.90
4207;DHT22;2117;47.972;7.830;2022-12-24T15:20:24;12.20;99.90
4207;DHT22;2117;47.972;7.830;2022-12-24T15:22:53;12.20;99.90
4207;DHT22;2117;47.972;7.830;2022-12-24T15:25:25;12.20;99.90
4207;DHT22;2117;47.972;7.830;2022-12-24T15:27:51;12.20;99.90
4207;DHT22;2117;47.972;7.830;2022-12-24T15:30:23;12.20;99.90
4207;DHT22;2117;47.972;7.830;2022-12-24T15:32:51;12.20;99.90
4207;DHT22;2117;47.972;7.830;2022-12-24T15:35:42;12.20;99.90
4207;DHT22;2117;47.972;7.830;2022-12-24T15:40:48;12.10;99.90
4207;DHT22;2117;47.972;7.830;2022-12-24T15:43:13;12.10;99.90
4207;DHT22;2117;47.972;7.830;2022-12-24T15:45:42;12.10;99.90
4207;DHT22;2117;47.972;7.830;2022-12-24T15:48:11;12.10;99.90
4207;DHT22;2117;47.972;7.830;2022-12-24T15:50:44;12.10;99.90
4207;DHT22;2117;47.972;7.830;2022-12-24T15:53:13;12.10;99.90
4207;DHT22;2117;47.972;7.830;2022-12-24T15:55:44;12.10;99.90
4207;DHT22;2117;47.972;7.830;2022-12-24T16:01:25;12.10;99.90
4207;DHT22;2117;47.972;7.830;2022-12-24T16:06:18;12.10;99.90
4207;DHT22;2117;47.972;7.830;2022-12-24T16:08:45;12.10;99.90
4207;DHT22;2117;47.972;7.830;2022-12-24T16:11:19;12.10;99.90
4207;DHT22;2117;47.972;7.830;2022-12-24T16:16:28;12.10;99.90
4207;DHT22;2117;47.972;7.830;2022-12-24T16:18:57;12.10;99.90
4207;DHT22;2117;47.972;7.830;2022-12-24T16:21:38;12.10;99.90
4207;DHT22;2117;47.972;7.830;2022-12-24T16:24:17;12.20;99.90
4207;DHT22;2117;47.972;7.830;2022-12-24T16:26:44;12.20;99.90
4207;DHT22;2117;47.972;7.830;2022-12-24T16:29:11;12.20;99.90
4207;DHT22;2117;47.972;7.830;2022-12-24T16:31:42;12.20;99.90
4207;DHT22;2117;47.972;7.830;2022-12-24T16:34:11;12.10;99.90
4207;DHT22;2117;47.972;7.830;2022-12-24T16:36:39;12.10;99.90
4207;DHT22;2117;47.972;7.830;2022-12-24T16:39:04;12.10;99.90
4207;DHT22;2117;47.972;7.830;2022-12-24T16:41:53;12.00;99.90
4207;DHT22;2117;47.972;7.830;2022-12-24T16:44:38;12.00;99.90
4207;DHT22;2117;47.972;7.830;2022-12-24T16:47:22;11.90;99.90
4207;DHT22;2117;47.972;7.830;2022-12-24T16:49:49;11.80;99.90
4207;DHT22;2117;47.972;7.830;2022-12-24T16:52:29;11.80;99.90
4207;DHT22;2117;47.972;7.830;2022-12-24T16:54:56;11.70;99.90
4207;DHT22;2117;47.972;7.830;2022-12-24T16:57:22;11.60;99.90
4207;DHT22;2117;47.972;7.830;2022-12-24T16:59:49;11.60;99.90
4207;DHT22;2117;47.972;7.830;2022-12-24T17:02:17;11.60;99.90
4207;DHT22;2117;47.972;7.830;2022-12-24T17:04:43;11.60;99.90
4207;DHT22;2117;47.972;7.830;2022-12-24T17:07:11;11.50;99.90
4207;DHT22;2117;47.972;7.830;2022-12-24T17:09:36;11.50;99.90
4207;DHT22;2117;47.972;7.830;2022-12-24T17:12:02;11.50;99.90
4207;DHT22;2117;47.972;7.830;2022-12-24T17:14:28;11.50;99.90
4207;DHT22;2117;47.972;7.830;2022-12-24T17:16:53;11.40;99.90
4207;DHT22;2117;47.972;7.830;2022-12-24T17:19:19;11.40;99.90
4207;DHT22;2117;47.972;7.830;2022-12-24T17:21:44;11.40;99.90
4207;DHT22;2117;47.972;7.830;2022-12-24T17:24:11;11.50;99.90
4207;DHT22;2117;47.972;7.830;2022-12-24T17:26:37;11.40;99.90
4207;DHT22;2117;47.972;7.830;2022-12-24T17:29:03;11.40;99.90
4207;DHT22;2117;47.972;7.830;2022-12-24T17:31:30;11.40;99.90
4207;DHT22;2117;47.972;7.830;2022-12-24T17:33:56;11.40;99.90
4207;DHT22;2117;47.972;7.830;2022-12-24T17:36:22;11.40;99.90
4207;DHT22;2117;47.972;7.830;2022-12-24T17:38:47;11.40;99.90
4207;DHT22;2117;47.972;7.830;2022-12-24T17:41:15;11.40;99.90
4207;DHT22;2117;47.972;7.830;2022-12-24T17:43:41;11.40;99.90
4207;DHT22;2117;47.972;7.830;2022-12-24T17:46:10;11.40;99.90
4207;DHT22;2117;47.972;7.830;2022-12-24T17:48:36;11.40;99.90
4207;DHT22;2117;47.972;7.830;2022-12-24T17:51:07;11.40;99.90
4207;DHT22;2117;47.972;7.830;2022-12-24T17:53:34;11.40;99.90
4207;DHT22;2117;47.972;7.830;2022-12-24T17:56:00;11.40;99.90
4207;DHT22;2117;47.972;7.830;2022-12-24T17:58:26;11.30;99.90
4207;DHT22;2117;47.972;7.830;2022-12-24T18:00:51;11.30;99.90
4207;DHT22;2117;47.972;7.830;2022-12-24T18:03:19;11.30;99.90
4207;DHT22;2117;47.972;7.830;2022-12-24T18:05:44;11.30;99.90
4207;DHT22;2117;47.972;7.830;2022-12-24T18:08:10;11.30;99.90
4207;DHT22;2117;47.972;7.830;2022-12-24T18:10:36;11.30;99.90
4207;DHT22;2117;47.972;7.830;2022-12-24T18:13:01;11.30;99.90
4207;DHT22;2117;47.972;7.830;2022-12-24T18:15:27;11.30;99.90
4207;DHT22;2117;47.972;7.830;2022-12-24T18:17:54;11.30;99.90
4207;DHT22;2117;47.972;7.830;2022-12-24T18:20:21;11.30;99.90
4207;DHT22;2117;47.972;7.830;2022-12-24T18:22:47;11.30;99.90
4207;DHT22;2117;47.972;7.830;2022-12-24T18:25:13;11.30;99.90
4207;DHT22;2117;47.972;7.830;2022-12-24T18:27:39;11.30;99.90
4207;DHT22;2117;47.972;7.830;2022-12-24T18:30:06;11.30;99.90
4207;DHT22;2117;47.972;7.830;2022-12-24T18:32:33;11.30;99.90
4207;DHT22;2117;47.972;7.830;2022-12-24T18:34:59;11.30;99.90
4207;DHT22;2117;47.972;7.830;2022-12-24T18:37:25;11.30;99.90
4207;DHT22;2117;47.972;7.830;2022-12-24T18:39:50;11.30;99.90
4207;DHT22;2117;47.972;7.830;2022-12-24T18:42:16;11.20;99.90
4207;DHT22;2117;47.972;7.830;2022-12-24T18:44:42;11.20;99.90
4207;DHT22;2117;47.972;7.830;2022-12-24T18:47:08;11.30;99.90
4207;DHT22;2117;47.972;7.830;2022-12-24T18:49:35;11.20;99.90
4207;DHT22;2117;47.972;7.830;2022-12-24T18:52:08;11.20;99.90
4207;DHT22;2117;47.972;7.830;2022-12-24T18:54:34;11.20;99.90
4207;DHT22;2117;47.972;7.830;2022-12-24T18:57:00;11.20;99.90
4207;DHT22;2117;47.972;7.830;2022-12-24T18:59:26;11.20;99.90
4207;DHT22;2117;47.972;7.830;2022-12-24T19:01:51;11.20;99.90
4207;DHT22;2117;47.972;7.830;2022-12-24T19:04:17;11.10;99.90
4207;DHT22;2117;47.972;7.830;2022-12-24T19:06:42;11.10;99.90
4207;DHT22;2117;47.972;7.830;2022-12-24T19:09:08;11.10;99.90
4207;DHT22;2117;47.972;7.830;2022-12-24T19:11:35;11.20;99.90
4207;DHT22;2117;47.972;7.830;2022-12-24T19:14:03;11.20;99.90
4207;DHT22;2117;47.972;7.830;2022-12-24T19:16:34;11.10;99.90
4207;DHT22;2117;47.972;7.830;2022-12-24T19:19:00;11.10;99.90
4207;DHT22;2117;47.972;7.830;2022-12-24T19:21:27;11.10;99.90
4207;DHT22;2117;47.972;7.830;2022-12-24T19:23:52;11.10;99.90
4207;DHT22;2117;47.972;7.830;2022-12-24T19:26:21;11.00;99.90
4207;DHT22;2117;47.972;7.830;2022-12-24T19:28:47;11.00;99.90
4207;DHT22;2117;47.972;7.830;2022-12-24T19:31:17;11.00;99.90
4207;DHT22;2117;47.972;7.830;2022-12-24T19:33:44;11.00;99.90
4207;DHT22;2117;47.972;7.830;2022-12-24T19:36:13;11.00;99.90
4207;DHT22;2117;47.972;7.830;2022-12-24T19:38:40;11.00;99.90
4207;DHT22;2117;47.972;7.830;2022-12-24T19:41:27;11.00;99.90
4207;DHT22;2117;47.972;7.830;2022-12-24T19:43:55;11.00;99.90
4207;DHT22;2117;47.972;7.830;2022-12-24T19:46:26;11.00;99.90
4207;DHT22;2117;47.972;7.830;2022-12-24T19:48:55;11.00;99.90
4207;DHT22;2117;47.972;7.830;2022-12-24T19:51:22;11.00;99.90
4207;DHT22;2117;47.972;7.830;2022-12-24T19:53:48;11.00;99.90
4207;DHT22;2117;47.972;7.830;2022-12-24T19:56:15;11.00;99.90
4207;DHT22;2117;47.972;7.830;2022-12-24T19:58:41;11.00;99.90
4207;DHT22;2117;47.972;7.830;2022-12-24T20:01:21;11.00;99.90
4207;DHT22;2117;47.972;7.830;2022-12-24T20:03:48;11.00;99.90
4207;DHT22;2117;47.972;7.830;2022-12-24T20:06:15;11.00;99.90
4207;DHT22;2117;47.972;7.830;2022-12-24T20:08:40;11.00;99.90
4207;DHT22;2117;47.972;7.830;2022-12-24T20:11:09;11.00;99.90
4207;DHT22;2117;47.972;7.830;2022-12-24T20:13:35;11.00;99.90
4207;DHT22;2117;47.972;7.830;2022-12-24T20:16:13;11.10;99.90
4207;DHT22;2117;47.972;7.830;2022-12-24T20:18:39;11.10;99.90
4207;DHT22;2117;47.972;7.830;2022-12-24T20:21:08;11.00;99.90
4207;DHT22;2117;47.972;7.830;2022-12-24T20:23:37;11.00;99.90
4207;DHT22;2117;47.972;7.830;2022-12-24T20:26:04;11.00;99.90
4207;DHT22;2117;47.972;7.830;2022-12-24T20:28:34;10.90;99.90
4207;DHT22;2117;47.972;7.830;2022-12-24T20:31:00;10.90;99.90
4207;DHT22;2117;47.972;7.830;2022-12-24T20:33:26;10.80;99.90
4207;DHT22;2117;47.972;7.830;2022-12-24T20:35:51;10.80;99.90